sensor_id;sensor_type;location;lat;lon;timestamp;pressure;altitude;pressure_sealevel;temperature;humidity
31771;BME280;18343;50.152;8.182;2023-04-06T00:01:49;97670.66;;;3.44;50.96
31771;BME280;18343;50.152;8.182;2023-04-06T00:04:34;97668.28;;;3.41;51.29
31771;BME280;18343;50.152;8.182;2023-04-06T00:07:18;97660.31;;;3.41;51.28
31771;BME280;18343;50.152;8.182;2023-04-06T00:10:06;97659.34;;;3.42;51.52
31771;BME280;18343;50.152;8.182;2023-04-06T00:12:51;97655.97;;;3.40;51.31
31771;BME280;18343;50.152;8.182;2023-04-06T00:15:36;97655.16;;;3.30;51.26
31771;BME280;18343;50.152;8.182;2023-04-06T00:18:22;97658.13;;;3.27;51.55
31771;BME280;18343;50.152;8.182;2023-04-06T00:21:07;97644.97;;;3.25;51.80
31771;BME280;18343;50.152;8.182;2023-04-06T00:23:52;97649.44;;;3.25;51.86
31771;BME280;18343;50.152;8.182;2023-04-06T00:26:38;97647.34;;;3.19;51.47
31771;BME280;18343;50.152;8.182;2023-04-06T00:29:22;97643.16;;;3.06;51.82
31771;BME280;18343;50.152;8.182;2023-04-06T00:32:08;97643.97;;;3.07;51.90
31771;BME280;18343;50.152;8.182;2023-04-06T00:34:52;97641.47;;;3.05;52.25
31771;BME280;18343;50.152;8.182;2023-04-06T00:37:37;97638.94;;;3.04;52.29
31771;BME280;18343;50.152;8.182;2023-04-06T00:40:22;97627.78;;;3.00;52.11
31771;BME280;18343;50.152;8.182;2023-04-06T00:43:08;97630.72;;;2.97;52.40
31771;BME280;18343;50.152;8.182;2023-04-06T00:45:53;97631.16;;;2.93;52.26
31771;BME280;18343;50.152;8.182;2023-04-06T00:48:37;97623.88;;;2.85;52.24
31771;BME280;18343;50.152;8.182;2023-04-06T00:51:23;97626.81;;;2.82;52.77
31771;BME280;18343;50.152;8.182;2023-04-06T00:54:07;97613.53;;;2.82;52.88
31771;BME280;18343;50.152;8.182;2023-04-06T00:56:52;97613.53;;;2.82;52.97
31771;BME280;18343;50.152;8.182;2023-04-06T00:59:39;97611.16;;;2.79;52.98
31771;BME280;18343;50.152;8.182;2023-04-06T01:02:24;97614.06;;;2.76;52.91
31771;BME280;18343;50.152;8.182;2023-04-06T01:05:08;97601.25;;;2.71;52.97
31771;BME280;18343;50.152;8.182;2023-04-06T01:07:53;97612.13;;;2.68;53.22
31771;BME280;18343;50.152;8.182;2023-04-06T01:10:38;97606.41;;;2.73;53.50
31771;BME280;18343;50.152;8.182;2023-04-06T01:13:23;97602.09;;;2.72;53.41
31771;BME280;18343;50.152;8.182;2023-04-06T01:16:09;97604.31;;;2.67;53.39
31771;BME280;18343;50.152;8.182;2023-04-06T01:18:54;97608.09;;;2.64;53.39
31771;BME280;18343;50.152;8.182;2023-04-06T01:21:39;97604.03;;;2.60;53.81
31771;BME280;18343;50.152;8.182;2023-04-06T01:24:25;97595.09;;;2.61;54.05
31771;BME280;18343;50.152;8.182;2023-04-06T01:27:10;97590.75;;;2.60;53.81
31771;BME280;18343;50.152;8.182;2023-04-06T01:29:55;97596.19;;;2.59;53.92
31771;BME280;18343;50.152;8.182;2023-04-06T01:32:40;97587.53;;;2.57;54.09
31771;BME280;18343;50.152;8.182;2023-04-06T01:35:27;97582.91;;;2.59;54.17
31771;BME280;18343;50.152;8.182;2023-04-06T01:38:12;97591.88;;;2.58;54.38
31771;BME280;18343;50.152;8.182;2023-04-06T01:40:58;97583.06;;;2.57;54.54
31771;BME280;18343;50.152;8.182;2023-04-06T01:43:44;97580.28;;;2.59;54.54
31771;BME280;18343;50.152;8.182;2023-04-06T01:46:29;97579.44;;;2.58;54.65
31771;BME280;18343;50.152;8.182;2023-04-06T01:49:13;97584.44;;;2.52;55.03
31771;BME280;18343;50.152;8.182;2023-04-06T01:51:58;97580.56;;;2.46;54.74
31771;BME280;18343;50.152;8.182;2023-04-06T01:54:43;97575.81;;;2.40;54.59
31771;BME280;18343;50.152;8.182;2023-04-06T01:57:29;97581.50;;;2.35;54.73
31771;BME280;18343;50.152;8.182;2023-04-06T02:00:15;97570.19;;;2.33;54.99
31771;BME280;18343;50.152;8.182;2023-04-06T02:03:00;97570.03;;;2.25;54.80
31771;BME280;18343;50.152;8.182;2023-04-06T02:05:45;97567.53;;;2.24;54.91
31771;BME280;18343;50.152;8.182;2023-04-06T02:08:29;97569.34;;;2.23;55.49
31771;BME280;18343;50.152;8.182;2023-04-06T02:11:14;97564.88;;;2.24;55.34
31771;BME280;18343;50.152;8.182;2023-04-06T02:14:00;97564.03;;;2.23;55.48
31771;BME280;18343;50.152;8.182;2023-04-06T02:16:44;97570.03;;;2.25;55.78
31771;BME280;18343;50.152;8.182;2023-04-06T02:19:29;97565.56;;;2.26;55.92
31771;BME280;18343;50.152;8.182;2023-04-06T02:22:13;97565.84;;;2.23;55.78
31771;BME280;18343;50.152;8.182;2023-04-06T02:24:58;97555.38;;;2.21;55.87
31771;BME280;18343;50.152;8.182;2023-04-06T02:27:43;97553.69;;;2.20;55.95
31771;BME280;18343;50.152;8.182;2023-04-06T02:30:29;97560.97;;;2.18;56.01
31771;BME280;18343;50.152;8.182;2023-04-06T02:33:13;97563.06;;;2.15;55.88
31771;BME280;18343;50.152;8.182;2023-04-06T02:35:58;97562.34;;;2.13;56.26
31771;BME280;18343;50.152;8.182;2023-04-06T02:38:43;97551.88;;;2.11;55.90
31771;BME280;18343;50.152;8.182;2023-04-06T02:41:27;97555.66;;;2.09;56.01
31771;BME280;18343;50.152;8.182;2023-04-06T02:44:12;97539.31;;;2.03;56.31
31771;BME280;18343;50.152;8.182;2023-04-06T02:46:58;97550.34;;;2.09;56.71
31771;BME280;18343;50.152;8.182;2023-04-06T02:49:42;97550.22;;;2.10;56.64
31771;BME280;18343;50.152;8.182;2023-04-06T02:52:27;97546.00;;;2.08;56.51
31771;BME280;18343;50.152;8.182;2023-04-06T02:55:12;97545.75;;;2.11;56.93
31771;BME280;18343;50.152;8.182;2023-04-06T02:57:57;97539.03;;;2.07;56.92
31771;BME280;18343;50.152;8.182;2023-04-06T03:00:41;97537.34;;;2.06;56.75
31771;BME280;18343;50.152;8.182;2023-04-06T03:03:27;97549.78;;;2.05;56.98
31771;BME280;18343;50.152;8.182;2023-04-06T03:06:12;97539.44;;;2.02;56.87
31771;BME280;18343;50.152;8.182;2023-04-06T03:08:57;97542.22;;;2.00;57.02
31771;BME280;18343;50.152;8.182;2023-04-06T03:11:41;97541.91;;;1.94;56.79
31771;BME280;18343;50.152;8.182;2023-04-06T03:14:27;97545.56;;;1.93;57.54
31771;BME280;18343;50.152;8.182;2023-04-06T03:17:13;97546.38;;;1.93;57.28
31771;BME280;18343;50.152;8.182;2023-04-06T03:19:58;97550.00;;;1.92;57.34
31771;BME280;18343;50.152;8.182;2023-04-06T03:22:43;97541.38;;;1.90;57.52
31771;BME280;18343;50.152;8.182;2023-04-06T03:25:28;97542.34;;;1.89;57.67
31771;BME280;18343;50.152;8.182;2023-04-06T03:28:12;97541.78;;;1.86;57.48
31771;BME280;18343;50.152;8.182;2023-04-06T03:30:57;97545.28;;;1.86;57.70
31771;BME280;18343;50.152;8.182;2023-04-06T03:33:41;97544.44;;;1.86;57.72
31771;BME280;18343;50.152;8.182;2023-04-06T03:36:27;97546.97;;;1.87;57.98
31771;BME280;18343;50.152;8.182;2023-04-06T03:39:12;97541.66;;;1.87;57.70
31771;BME280;18343;50.152;8.182;2023-04-06T03:41:57;97545.41;;;1.85;57.97
31771;BME280;18343;50.152;8.182;2023-04-06T03:44:42;97543.47;;;1.87;58.19
31771;BME280;18343;50.152;8.182;2023-04-06T03:47:26;97544.16;;;1.89;58.18
31771;BME280;18343;50.152;8.182;2023-04-06T03:50:11;97551.41;;;1.87;58.08
31771;BME280;18343;50.152;8.182;2023-04-06T03:52:57;97555.88;;;1.86;58.26
31771;BME280;18343;50.152;8.182;2023-04-06T03:55:41;97546.25;;;1.85;58.31
31771;BME280;18343;50.152;8.182;2023-04-06T03:58:26;97552.22;;;1.78;57.87
31771;BME280;18343;50.152;8.182;2023-04-06T04:01:11;97551.66;;;1.74;58.25
31771;BME280;18343;50.152;8.182;2023-04-06T04:03:56;97550.81;;;1.74;58.28
31771;BME280;18343;50.152;8.182;2023-04-06T04:06:41;97552.75;;;1.72;58.02
31771;BME280;18343;50.152;8.182;2023-04-06T04:09:26;97551.06;;;1.70;58.38
31771;BME280;18343;50.152;8.182;2023-04-06T04:12:11;97553.84;;;1.69;58.27
31771;BME280;18343;50.152;8.182;2023-04-06T04:14:56;97561.25;;;1.65;58.38
31771;BME280;18343;50.152;8.182;2023-04-06T04:17:40;97559.44;;;1.66;58.42
31771;BME280;18343;50.152;8.182;2023-04-06T04:20:25;97562.22;;;1.64;58.52
31771;BME280;18343;50.152;8.182;2023-04-06T04:23:10;97561.53;;;1.62;58.94
31771;BME280;18343;50.152;8.182;2023-04-06T04:25:56;97557.06;;;1.63;58.76
31771;BME280;18343;50.152;8.182;2023-04-06T04:28:41;97558.47;;;1.67;59.23
31771;BME280;18343;50.152;8.182;2023-04-06T04:31:25;97556.50;;;1.69;59.58
31771;BME280;18343;50.152;8.182;2023-04-06T04:34:10;97565.75;;;1.75;59.57
31771;BME280;18343;50.152;8.182;2023-04-06T04:36:55;97569.09;;;1.77;59.63
31771;BME280;18343;50.152;8.182;2023-04-06T04:39:39;97559.34;;;1.77;59.31
31771;BME280;18343;50.152;8.182;2023-04-06T04:42:25;97563.94;;;1.75;59.08
31771;BME280;18343;50.152;8.182;2023-04-06T04:45:10;97569.09;;;1.77;59.64
31771;BME280;18343;50.152;8.182;2023-04-06T04:47:55;97567.03;;;1.80;59.81
31771;BME280;18343;50.152;8.182;2023-04-06T04:50:40;97572.75;;;1.85;59.87
31771;BME280;18343;50.152;8.182;2023-04-06T04:53:24;97572.38;;;1.90;59.82
31771;BME280;18343;50.152;8.182;2023-04-06T04:56:09;97569.56;;;1.91;60.03
31771;BME280;18343;50.152;8.182;2023-04-06T04:58:55;97571.53;;;1.89;59.73
31771;BME280;18343;50.152;8.182;2023-04-06T05:01:40;97570.56;;;1.90;59.93
31771;BME280;18343;50.152;8.182;2023-04-06T05:04:24;97573.03;;;1.92;60.00
31771;BME280;18343;50.152;8.182;2023-04-06T05:07:09;97578.06;;;1.95;60.20
31771;BME280;18343;50.152;8.182;2023-04-06T05:09:54;97569.16;;;1.96;60.05
31771;BME280;18343;50.152;8.182;2023-04-06T05:12:39;97563.44;;;2.00;60.36
31771;BME280;18343;50.152;8.182;2023-04-06T05:15:25;97570.16;;;2.04;60.47
31771;BME280;18343;50.152;8.182;2023-04-06T05:18:10;97568.06;;;2.08;60.33
31771;BME280;18343;50.152;8.182;2023-04-06T05:20:55;97571.69;;;2.07;60.45
31771;BME280;18343;50.152;8.182;2023-04-06T05:23:40;97568.91;;;2.09;60.42
31771;BME280;18343;50.152;8.182;2023-04-06T05:26:24;97566.00;;;2.12;60.89
31771;BME280;18343;50.152;8.182;2023-04-06T05:29:10;97572.00;;;2.14;60.95
31771;BME280;18343;50.152;8.182;2023-04-06T05:31:56;97567.13;;;2.19;61.12
31771;BME280;18343;50.152;8.182;2023-04-06T05:34:41;97569.47;;;2.22;61.11
31771;BME280;18343;50.152;8.182;2023-04-06T05:37:26;97569.19;;;2.25;61.04
31771;BME280;18343;50.152;8.182;2023-04-06T05:40:11;97571.44;;;2.29;61.25
31771;BME280;18343;50.152;8.182;2023-04-06T05:42:55;97573.56;;;2.35;61.60
31771;BME280;18343;50.152;8.182;2023-04-06T05:45:40;97575.94;;;2.38;61.36
31771;BME280;18343;50.152;8.182;2023-04-06T05:48:26;97574.69;;;2.43;61.56
31771;BME280;18343;50.152;8.182;2023-04-06T05:51:11;97571.75;;;2.46;61.51
31771;BME280;18343;50.152;8.182;2023-04-06T05:53:56;97574.66;;;2.52;61.56
31771;BME280;18343;50.152;8.182;2023-04-06T05:56:40;97568.94;;;2.57;61.69
31771;BME280;18343;50.152;8.182;2023-04-06T05:59:25;97579.16;;;2.61;61.89
31771;BME280;18343;50.152;8.182;2023-04-06T06:02:09;97573.28;;;2.67;61.66
31771;BME280;18343;50.152;8.182;2023-04-06T06:04:55;97576.66;;;2.69;61.53
31771;BME280;18343;50.152;8.182;2023-04-06T06:07:40;97582.34;;;2.75;61.95
31771;BME280;18343;50.152;8.182;2023-04-06T06:10:25;97578.03;;;2.83;62.24
31771;BME280;18343;50.152;8.182;2023-04-06T06:13:10;97575.50;;;2.91;62.31
31771;BME280;18343;50.152;8.182;2023-04-06T06:15:55;97575.78;;;2.98;62.55
31771;BME280;18343;50.152;8.182;2023-04-06T06:18:39;97581.06;;;3.08;62.78
31771;BME280;18343;50.152;8.182;2023-04-06T06:21:25;97568.75;;;3.16;62.94
31771;BME280;18343;50.152;8.182;2023-04-06T06:24:09;97579.88;;;3.29;63.13
31771;BME280;18343;50.152;8.182;2023-04-06T06:26:54;97574.28;;;3.42;63.31
31771;BME280;18343;50.152;8.182;2023-04-06T06:29:39;97574.09;;;3.53;63.53
31771;BME280;18343;50.152;8.182;2023-04-06T06:32:24;97572.50;;;3.70;63.54
31771;BME280;18343;50.152;8.182;2023-04-06T06:35:09;97571.34;;;3.82;63.23
31771;BME280;18343;50.152;8.182;2023-04-06T06:37:55;97567.66;;;3.83;63.83
31771;BME280;18343;50.152;8.182;2023-04-06T06:40:40;97566.34;;;3.97;63.59
31771;BME280;18343;50.152;8.182;2023-04-06T06:43:25;97578.53;;;4.17;63.82
31771;BME280;18343;50.152;8.182;2023-04-06T06:46:09;97575.16;;;4.42;63.59
31771;BME280;18343;50.152;8.182;2023-04-06T06:48:54;97572.56;;;4.68;63.66
31771;BME280;18343;50.152;8.182;2023-04-06T06:51:39;97577.75;;;4.88;63.47
31771;BME280;18343;50.152;8.182;2023-04-06T06:54:25;97583.34;;;5.02;62.78
31771;BME280;18343;50.152;8.182;2023-04-06T06:57:09;97569.22;;;5.28;63.02
31771;BME280;18343;50.152;8.182;2023-04-06T06:59:54;97570.84;;;5.47;63.04
31771;BME280;18343;50.152;8.182;2023-04-06T07:02:38;97566.28;;;5.65;62.99
31771;BME280;18343;50.152;8.182;2023-04-06T07:05:23;97572.66;;;5.72;62.91
31771;BME280;18343;50.152;8.182;2023-04-06T07:08:08;97577.94;;;5.90;62.47
31771;BME280;18343;50.152;8.182;2023-04-06T07:10:54;97574.66;;;6.04;61.72
31771;BME280;18343;50.152;8.182;2023-04-06T07:13:39;97569.53;;;6.19;62.33
31771;BME280;18343;50.152;8.182;2023-04-06T07:16:23;97567.75;;;6.35;61.73
31771;BME280;18343;50.152;8.182;2023-04-06T07:19:08;97569.19;;;6.14;58.69
31771;BME280;18343;50.152;8.182;2023-04-06T07:21:52;97565.59;;;6.39;60.02
31771;BME280;18343;50.152;8.182;2023-04-06T07:24:37;97577.47;;;6.44;59.95
31771;BME280;18343;50.152;8.182;2023-04-06T07:27:23;97569.97;;;6.48;58.61
31771;BME280;18343;50.152;8.182;2023-04-06T07:30:09;97572.97;;;6.45;56.84
31771;BME280;18343;50.152;8.182;2023-04-06T07:32:53;97571.63;;;6.57;56.16
31771;BME280;18343;50.152;8.182;2023-04-06T07:35:38;97574.00;;;6.85;57.94
31771;BME280;18343;50.152;8.182;2023-04-06T07:38:23;97570.19;;;6.79;54.96
31771;BME280;18343;50.152;8.182;2023-04-06T07:41:07;97572.19;;;6.93;57.09
31771;BME280;18343;50.152;8.182;2023-04-06T07:43:53;97569.53;;;7.09;55.63
31771;BME280;18343;50.152;8.182;2023-04-06T07:46:38;97575.19;;;7.14;56.69
31771;BME280;18343;50.152;8.182;2023-04-06T07:49:22;97564.16;;;7.34;56.05
31771;BME280;18343;50.152;8.182;2023-04-06T07:52:07;97568.66;;;7.25;54.06
31771;BME280;18343;50.152;8.182;2023-04-06T07:54:51;97567.13;;;7.47;55.37
31771;BME280;18343;50.152;8.182;2023-04-06T07:57:36;97574.63;;;7.60;54.74
31771;BME280;18343;50.152;8.182;2023-04-06T08:00:23;97568.91;;;7.71;53.97
31771;BME280;18343;50.152;8.182;2023-04-06T08:03:08;97573.91;;;7.82;53.94
31771;BME280;18343;50.152;8.182;2023-04-06T08:05:52;97577.59;;;7.73;53.62
31771;BME280;18343;50.152;8.182;2023-04-06T08:08:37;97574.41;;;7.86;53.55
31771;BME280;18343;50.152;8.182;2023-04-06T08:11:22;97567.44;;;8.07;53.73
31771;BME280;18343;50.152;8.182;2023-04-06T08:14:06;97582.03;;;7.97;52.69
31771;BME280;18343;50.152;8.182;2023-04-06T08:16:52;97574.16;;;8.03;52.94
31771;BME280;18343;50.152;8.182;2023-04-06T08:19:37;97577.78;;;8.19;52.49
31771;BME280;18343;50.152;8.182;2023-04-06T08:22:21;97577.22;;;8.39;52.47
31771;BME280;18343;50.152;8.182;2023-04-06T08:25:07;97579.88;;;8.47;51.41
31771;BME280;18343;50.152;8.182;2023-04-06T08:27:52;97577.28;;;8.54;51.15
31771;BME280;18343;50.152;8.182;2023-04-06T08:30:39;97569.88;;;8.64;51.74
31771;BME280;18343;50.152;8.182;2023-04-06T08:33:25;97577.47;;;8.75;51.51
31771;BME280;18343;50.152;8.182;2023-04-06T08:36:13;97582.44;;;8.87;50.76
31771;BME280;18343;50.152;8.182;2023-04-06T08:38:59;97579.16;;;9.22;51.69
31771;BME280;18343;50.152;8.182;2023-04-06T08:41:44;97571.44;;;9.42;50.94
31771;BME280;18343;50.152;8.182;2023-04-06T08:44:29;97579.78;;;9.62;50.83
31771;BME280;18343;50.152;8.182;2023-04-06T08:47:14;97572.84;;;9.67;50.12
31771;BME280;18343;50.152;8.182;2023-04-06T08:50:04;97579.81;;;9.76;49.94
31771;BME280;18343;50.152;8.182;2023-04-06T08:52:49;97568.44;;;9.74;49.18
31771;BME280;18343;50.152;8.182;2023-04-06T08:55:35;97570.63;;;9.85;49.65
31771;BME280;18343;50.152;8.182;2023-04-06T08:58:23;97573.88;;;9.96;49.17
31771;BME280;18343;50.152;8.182;2023-04-06T09:01:17;97574.09;;;10.09;49.04
31771;BME280;18343;50.152;8.182;2023-04-06T09:04:08;97573.16;;;10.31;49.33
31771;BME280;18343;50.152;8.182;2023-04-06T09:07:31;97580.63;;;10.50;48.21
31771;BME280;18343;50.152;8.182;2023-04-06T09:10:17;97578.03;;;10.57;48.32
31771;BME280;18343;50.152;8.182;2023-04-06T09:13:31;97578.75;;;10.66;47.80
31771;BME280;18343;50.152;8.182;2023-04-06T09:17:31;97574.16;;;10.81;47.46
31771;BME280;18343;50.152;8.182;2023-04-06T09:20:24;97581.69;;;10.71;47.59
31771;BME280;18343;50.152;8.182;2023-04-06T09:23:19;97579.38;;;10.68;47.15
31771;BME280;18343;50.152;8.182;2023-04-06T09:26:12;97586.91;;;10.58;46.47
31771;BME280;18343;50.152;8.182;2023-04-06T09:29:08;97573.13;;;10.82;46.97
31771;BME280;18343;50.152;8.182;2023-04-06T09:32:09;97587.22;;;10.84;46.80
31771;BME280;18343;50.152;8.182;2023-04-06T09:35:06;97581.97;;;10.97;46.60
31771;BME280;18343;50.152;8.182;2023-04-06T09:37:54;97574.72;;;10.98;46.52
31771;BME280;18343;50.152;8.182;2023-04-06T09:40:50;97571.97;;;11.12;45.99
31771;BME280;18343;50.152;8.182;2023-04-06T09:43:41;97563.53;;;11.15;46.11
31771;BME280;18343;50.152;8.182;2023-04-06T09:46:35;97570.03;;;11.28;45.84
31771;BME280;18343;50.152;8.182;2023-04-06T09:49:30;97566.97;;;11.31;45.55
31771;BME280;18343;50.152;8.182;2023-04-06T09:52:21;97566.97;;;11.31;45.49
31771;BME280;18343;50.152;8.182;2023-04-06T09:55:16;97562.56;;;11.51;45.80
31771;BME280;18343;50.152;8.182;2023-04-06T09:58:06;97569.78;;;11.44;44.88
31771;BME280;18343;50.152;8.182;2023-04-06T10:01:04;97564.16;;;11.67;45.33
31771;BME280;18343;50.152;8.182;2023-04-06T10:04:31;97561.13;;;11.76;45.13
31771;BME280;18343;50.152;8.182;2023-04-06T10:07:30;97567.72;;;11.74;44.39
31771;BME280;18343;50.152;8.182;2023-04-06T10:10:29;97566.00;;;11.94;44.47
31771;BME280;18343;50.152;8.182;2023-04-06T10:13:24;97561.59;;;11.86;43.98
31771;BME280;18343;50.152;8.182;2023-04-06T10:16:13;97568.16;;;11.77;43.86
31771;BME280;18343;50.152;8.182;2023-04-06T10:19:18;97558.38;;;12.04;43.93
31771;BME280;18343;50.152;8.182;2023-04-06T10:22:09;97564.19;;;12.01;43.49
31771;BME280;18343;50.152;8.182;2023-04-06T10:25:00;97560.09;;;12.12;43.71
31771;BME280;18343;50.152;8.182;2023-04-06T10:31:05;97556.56;;;12.11;43.33
31771;BME280;18343;50.152;8.182;2023-04-06T10:34:02;97559.84;;;12.07;43.16
31771;BME280;18343;50.152;8.182;2023-04-06T10:36:58;97556.59;;;12.18;43.19
31771;BME280;18343;50.152;8.182;2023-04-06T10:39:55;97548.75;;;12.23;43.02
31771;BME280;18343;50.152;8.182;2023-04-06T10:42:48;97560.19;;;12.25;43.26
31771;BME280;18343;50.152;8.182;2023-04-06T10:45:40;97559.16;;;11.92;42.89
31771;BME280;18343;50.152;8.182;2023-04-06T10:48:37;97555.19;;;12.22;42.77
31771;BME280;18343;50.152;8.182;2023-04-06T10:51:37;97557.72;;;12.37;42.54
31771;BME280;18343;50.152;8.182;2023-04-06T10:54:46;97551.94;;;12.40;42.43
31771;BME280;18343;50.152;8.182;2023-04-06T10:57:41;97548.19;;;12.41;42.55
31771;BME280;18343;50.152;8.182;2023-04-06T11:00:26;97548.72;;;12.16;42.69
31771;BME280;18343;50.152;8.182;2023-04-06T11:03:31;97550.94;;;12.47;42.45
31771;BME280;18343;50.152;8.182;2023-04-06T11:06:21;97545.28;;;12.36;42.22
31771;BME280;18343;50.152;8.182;2023-04-06T11:09:09;97552.75;;;11.93;43.01
31771;BME280;18343;50.152;8.182;2023-04-06T11:12:36;97542.78;;;12.34;42.25
31771;BME280;18343;50.152;8.182;2023-04-06T11:15:50;97545.28;;;12.36;42.60
31771;BME280;18343;50.152;8.182;2023-04-06T11:18:53;97544.63;;;12.34;42.70
31771;BME280;18343;50.152;8.182;2023-04-06T11:21:46;97534.81;;;12.13;42.69
31771;BME280;18343;50.152;8.182;2023-04-06T11:24:33;97532.00;;;12.41;42.71
31771;BME280;18343;50.152;8.182;2023-04-06T11:27:20;97529.63;;;12.72;42.87
31771;BME280;18343;50.152;8.182;2023-04-06T11:30:09;97524.88;;;12.81;42.79
31771;BME280;18343;50.152;8.182;2023-04-06T11:33:03;97525.91;;;12.80;42.66
31771;BME280;18343;50.152;8.182;2023-04-06T11:36:06;97514.56;;;13.17;42.46
31771;BME280;18343;50.152;8.182;2023-04-06T11:39:10;97516.81;;;13.01;42.32
31771;BME280;18343;50.152;8.182;2023-04-06T11:41:59;97514.53;;;13.11;42.45
31771;BME280;18343;50.152;8.182;2023-04-06T11:44:45;97518.06;;;13.05;42.10
31771;BME280;18343;50.152;8.182;2023-04-06T11:47:37;97504.34;;;13.00;42.33
31771;BME280;18343;50.152;8.182;2023-04-06T11:50:42;97499.78;;;13.07;42.51
31771;BME280;18343;50.152;8.182;2023-04-06T11:53:44;97499.81;;;13.40;42.40
31771;BME280;18343;50.152;8.182;2023-04-06T11:56:45;97496.91;;;13.35;41.90
31771;BME280;18343;50.152;8.182;2023-04-06T11:59:45;97495.66;;;13.24;42.23
31771;BME280;18343;50.152;8.182;2023-04-06T12:02:44;97493.38;;;13.34;42.37
31771;BME280;18343;50.152;8.182;2023-04-06T12:05:35;97490.03;;;13.52;41.63
31771;BME280;18343;50.152;8.182;2023-04-06T12:09:06;97497.72;;;13.42;41.42
31771;BME280;18343;50.152;8.182;2023-04-06T12:12:13;97501.28;;;13.36;41.63
31771;BME280;18343;50.152;8.182;2023-04-06T12:14:59;97494.41;;;13.33;40.83
31771;BME280;18343;50.152;8.182;2023-04-06T12:17:54;97496.47;;;13.44;41.22
31771;BME280;18343;50.152;8.182;2023-04-06T12:20:49;97498.34;;;13.57;41.37
31771;BME280;18343;50.152;8.182;2023-04-06T12:23:42;97486.09;;;13.48;41.00
31771;BME280;18343;50.152;8.182;2023-04-06T12:30:05;97481.72;;;13.47;41.48
31771;BME280;18343;50.152;8.182;2023-04-06T12:32:54;97488.16;;;13.46;41.29
31771;BME280;18343;50.152;8.182;2023-04-06T12:35:51;97479.66;;;13.36;41.47
31771;BME280;18343;50.152;8.182;2023-04-06T12:38:50;97468.41;;;13.65;41.29
31771;BME280;18343;50.152;8.182;2023-04-06T12:42:07;97473.41;;;13.62;41.41
31771;BME280;18343;50.152;8.182;2023-04-06T12:44:57;97475.63;;;13.84;41.55
31771;BME280;18343;50.152;8.182;2023-04-06T12:47:57;97473.75;;;13.85;40.96
31771;BME280;18343;50.152;8.182;2023-04-06T12:50:54;97472.25;;;13.96;41.13
31771;BME280;18343;50.152;8.182;2023-04-06T12:53:41;97475.41;;;13.79;40.77
31771;BME280;18343;50.152;8.182;2023-04-06T12:56:49;97464.63;;;13.73;40.61
31771;BME280;18343;50.152;8.182;2023-04-06T12:59:47;97464.31;;;14.07;41.14
31771;BME280;18343;50.152;8.182;2023-04-06T13:02:54;97449.09;;;14.19;40.44
31771;BME280;18343;50.152;8.182;2023-04-06T13:05:50;97460.88;;;14.25;40.17
31771;BME280;18343;50.152;8.182;2023-04-06T13:08:39;97465.19;;;13.95;40.01
31771;BME280;18343;50.152;8.182;2023-04-06T13:11:30;97460.56;;;14.02;39.84
31771;BME280;18343;50.152;8.182;2023-04-06T13:14:29;97453.00;;;14.23;39.80
31771;BME280;18343;50.152;8.182;2023-04-06T13:17:17;97455.97;;;14.09;39.61
31771;BME280;18343;50.152;8.182;2023-04-06T13:20:13;97456.97;;;14.21;39.58
31771;BME280;18343;50.152;8.182;2023-04-06T13:23:04;97453.09;;;14.04;39.30
31771;BME280;18343;50.152;8.182;2023-04-06T13:25:59;97466.19;;;14.07;39.71
31771;BME280;18343;50.152;8.182;2023-04-06T13:28:46;97464.41;;;13.68;39.25
31771;BME280;18343;50.152;8.182;2023-04-06T13:31:41;97465.63;;;13.92;39.44
31771;BME280;18343;50.152;8.182;2023-04-06T13:34:34;97453.97;;;13.91;38.99
31771;BME280;18343;50.152;8.182;2023-04-06T13:37:25;97453.78;;;13.93;39.01
31771;BME280;18343;50.152;8.182;2023-04-06T13:40:16;97447.56;;;13.72;38.78
31771;BME280;18343;50.152;8.182;2023-04-06T13:43:08;97441.81;;;13.49;39.31
31771;BME280;18343;50.152;8.182;2023-04-06T13:46:06;97447.56;;;13.72;39.42
31771;BME280;18343;50.152;8.182;2023-04-06T13:48:51;97440.91;;;13.75;38.75
31771;BME280;18343;50.152;8.182;2023-04-06T13:51:45;97440.34;;;13.60;39.04
31771;BME280;18343;50.152;8.182;2023-04-06T13:54:34;97439.88;;;13.76;38.97
31771;BME280;18343;50.152;8.182;2023-04-06T13:57:25;97435.28;;;13.89;38.83
31771;BME280;18343;50.152;8.182;2023-04-06T14:00:21;97431.75;;;13.89;38.63
31771;BME280;18343;50.152;8.182;2023-04-06T14:03:14;97436.19;;;13.64;38.71
31771;BME280;18343;50.152;8.182;2023-04-06T14:06:09;97437.69;;;13.40;39.07
31771;BME280;18343;50.152;8.182;2023-04-06T14:09:20;97435.59;;;13.48;38.69
31771;BME280;18343;50.152;8.182;2023-04-06T14:12:18;97432.03;;;13.54;38.61
31771;BME280;18343;50.152;8.182;2023-04-06T14:15:17;97422.47;;;13.65;38.60
31771;BME280;18343;50.152;8.182;2023-04-06T14:18:19;97430.31;;;13.73;38.87
31771;BME280;18343;50.152;8.182;2023-04-06T14:21:19;97436.97;;;13.77;38.60
31771;BME280;18343;50.152;8.182;2023-04-06T14:24:21;97436.16;;;13.70;38.38
31771;BME280;18343;50.152;8.182;2023-04-06T14:27:25;97433.28;;;13.65;38.35
31771;BME280;18343;50.152;8.182;2023-04-06T14:30:20;97439.88;;;13.69;38.42
31771;BME280;18343;50.152;8.182;2023-04-06T14:33:13;97432.44;;;13.65;38.25
31771;BME280;18343;50.152;8.182;2023-04-06T14:36:12;97432.44;;;13.65;37.97
31771;BME280;18343;50.152;8.182;2023-04-06T14:39:00;97432.66;;;13.57;37.88
31771;BME280;18343;50.152;8.182;2023-04-06T14:41:49;97433.09;;;13.47;38.06
31771;BME280;18343;50.152;8.182;2023-04-06T14:48:45;97423.94;;;13.41;37.80
31771;BME280;18343;50.152;8.182;2023-04-06T14:51:36;97429.13;;;13.49;38.17
31771;BME280;18343;50.152;8.182;2023-04-06T14:54:38;97417.28;;;13.57;38.23
31771;BME280;18343;50.152;8.182;2023-04-06T14:57:29;97424.16;;;13.53;38.13
31771;BME280;18343;50.152;8.182;2023-04-06T15:00:22;97421.91;;;13.37;37.92
31771;BME280;18343;50.152;8.182;2023-04-06T15:03:08;97423.56;;;13.38;37.76
31771;BME280;18343;50.152;8.182;2023-04-06T15:05:57;97429.59;;;13.40;37.77
31771;BME280;18343;50.152;8.182;2023-04-06T15:08:49;97423.16;;;12.95;38.07
31771;BME280;18343;50.152;8.182;2023-04-06T15:11:36;97420.66;;;13.06;37.89
31771;BME280;18343;50.152;8.182;2023-04-06T15:14:25;97429.81;;;13.12;37.83
31771;BME280;18343;50.152;8.182;2023-04-06T15:17:20;97418.38;;;13.16;37.86